createdAt,value
2018-07-07T00:00:33.080Z,7.63
2018-07-07T00:03:02.476Z,10.33
2018-07-07T00:05:31.817Z,7.30
2018-07-07T00:08:01.336Z,7.97
2018-07-07T00:10:30.831Z,7.77
2018-07-07T00:13:00.333Z,9.73
2018-07-07T00:15:30.167Z,7.20
2018-07-07T00:17:59.639Z,8.10
2018-07-07T00:20:28.959Z,8.03
2018-07-07T00:22:58.246Z,8.50
2018-07-07T00:25:27.679Z,9.27
2018-07-07T00:27:57.141Z,7.77
2018-07-07T00:30:26.469Z,8.27
2018-07-07T00:32:55.939Z,7.67
2018-07-07T00:35:25.468Z,8.30
2018-07-07T00:37:54.979Z,8.37
2018-07-07T00:40:24.315Z,7.57
2018-07-07T00:42:53.844Z,8.23
2018-07-07T00:45:23.340Z,7.70
2018-07-07T00:47:52.699Z,9.13
2018-07-07T00:50:21.950Z,8.40
2018-07-07T00:52:51.376Z,9.30
2018-07-07T00:55:20.794Z,8.00
2018-07-07T00:57:50.172Z,8.57
2018-07-07T01:00:19.535Z,9.00
2018-07-07T01:02:49.102Z,8.57
2018-07-07T01:05:29.666Z,9.30
2018-07-07T01:07:59.054Z,8.07
2018-07-07T01:10:29.005Z,10.30
2018-07-07T01:12:58.192Z,9.23
2018-07-07T01:15:28.357Z,8.93
2018-07-07T01:17:57.797Z,8.70
2018-07-07T01:20:27.072Z,10.33
2018-07-07T01:22:56.400Z,8.47
2018-07-07T01:25:26.603Z,9.07
2018-07-07T01:27:55.862Z,9.87
2018-07-07T01:30:25.247Z,10.37
2018-07-07T01:32:55.068Z,9.33
2018-07-07T01:35:24.854Z,9.57
2018-07-07T01:37:54.464Z,10.17
2018-07-07T01:40:23.985Z,10.57
2018-07-07T01:42:53.544Z,10.33
2018-07-07T01:45:23.075Z,9.40
2018-07-07T01:47:52.415Z,9.50
2018-07-07T02:00:06.917Z,10.17
2018-07-07T02:02:36.335Z,9.77
2018-07-07T02:05:05.702Z,12.67
2018-07-07T02:07:34.966Z,10.20
2018-07-07T02:10:05.056Z,9.37
2018-07-07T02:12:34.407Z,9.33
2018-07-07T02:15:03.841Z,10.67
2018-07-07T02:17:33.204Z,9.30
2018-07-07T02:20:02.601Z,9.30
2018-07-07T02:22:32.475Z,12.83
2018-07-07T02:25:01.791Z,9.03
2018-07-07T02:27:31.150Z,9.10
2018-07-07T02:30:00.514Z,9.53
2018-07-07T02:32:29.807Z,9.90
2018-07-07T02:34:59.239Z,9.30
2018-07-07T02:37:28.618Z,9.10
2018-07-07T02:39:58.141Z,9.57
2018-07-07T02:42:27.590Z,10.03
2018-07-07T02:44:56.913Z,9.93
2018-07-07T02:47:26.234Z,10.80
2018-07-07T02:49:56.499Z,10.37
2018-07-07T02:52:25.854Z,10.73
2018-07-07T02:54:55.181Z,10.23
2018-07-07T02:57:24.601Z,10.50
2018-07-07T02:59:53.962Z,11.67
2018-07-07T03:02:23.373Z,10.40
2018-07-07T03:04:52.901Z,9.73
2018-07-07T03:07:22.416Z,10.37
2018-07-07T03:09:52.251Z,10.87
2018-07-07T03:12:21.590Z,10.37
2018-07-07T03:14:51.041Z,10.97
2018-07-07T03:17:20.298Z,10.50
2018-07-07T03:19:49.803Z,10.27
2018-07-07T03:22:19.270Z,10.23
2018-07-07T03:24:48.693Z,10.53
2018-07-07T03:27:18.435Z,11.00
2018-07-07T03:29:47.789Z,10.33
2018-07-07T03:32:17.254Z,10.80
2018-07-07T03:34:46.559Z,12.90
2018-07-07T03:37:15.886Z,9.93
2018-07-07T03:39:45.424Z,10.83
2018-07-07T03:42:15.035Z,10.83
2018-07-07T03:44:44.496Z,10.97
2018-07-07T03:47:14.567Z,10.30
2018-07-07T03:49:43.874Z,10.70
2018-07-07T03:52:13.564Z,10.80
2018-07-07T03:54:43.039Z,10.10
2018-07-07T03:57:12.367Z,10.17
2018-07-07T03:59:41.783Z,10.40
2018-07-07T04:02:11.398Z,10.53
2018-07-07T04:04:41.479Z,11.77
2018-07-07T04:07:11.073Z,9.97
2018-07-07T04:09:40.948Z,9.50
2018-07-07T04:12:11.475Z,9.83
2018-07-07T04:14:40.882Z,11.07
2018-07-07T04:17:10.183Z,10.73
2018-07-07T04:19:39.470Z,11.07
2018-07-07T04:22:08.782Z,11.67
2018-07-07T04:24:38.253Z,10.27
2018-07-07T04:27:08.445Z,12.07
2018-07-07T04:29:38.090Z,12.13
2018-07-07T04:32:07.103Z,12.97
2018-07-07T04:34:37.147Z,11.60
2018-07-07T04:37:06.818Z,11.00
2018-07-07T04:39:36.231Z,11.23
2018-07-07T04:42:05.564Z,10.70
2018-07-07T04:44:35.466Z,11.20
2018-07-07T04:47:04.746Z,11.67
2018-07-07T04:49:34.288Z,13.07
2018-07-07T04:52:03.901Z,13.53
2018-07-07T04:54:33.452Z,12.50
2018-07-07T04:57:02.911Z,10.60
2018-07-07T04:59:32.410Z,10.83
2018-07-07T05:02:02.021Z,10.67
2018-07-07T05:04:31.330Z,10.83
2018-07-07T05:07:00.502Z,10.63
2018-07-07T05:09:29.799Z,11.07
2018-07-07T05:11:59.183Z,10.70
2018-07-07T05:14:28.516Z,15.47
2018-07-07T05:16:57.789Z,10.97
2018-07-07T05:19:27.387Z,10.67
2018-07-07T05:21:56.714Z,11.17
2018-07-07T05:24:26.102Z,11.27
2018-07-07T05:26:55.501Z,10.77
2018-07-07T05:29:25.043Z,12.90
2018-07-07T05:31:54.515Z,11.07
2018-07-07T05:34:23.802Z,10.87
2018-07-07T05:36:53.332Z,13.07
2018-07-07T05:39:22.636Z,10.43
2018-07-07T05:41:52.320Z,12.60
2018-07-07T05:44:21.709Z,11.30
2018-07-07T05:46:51.526Z,11.23
2018-07-07T05:49:21.064Z,15.50
2018-07-07T05:51:50.387Z,11.67
2018-07-07T05:54:19.758Z,13.83
2018-07-07T05:56:49.136Z,13.90
2018-07-07T05:59:18.547Z,13.57
2018-07-07T06:01:47.998Z,12.10
2018-07-07T06:04:17.268Z,11.30
2018-07-07T06:06:46.581Z,12.30
2018-07-07T06:09:15.586Z,11.57
2018-07-07T06:11:45.203Z,10.60
2018-07-07T06:14:14.547Z,11.70
2018-07-07T06:16:43.904Z,12.33
2018-07-07T06:19:13.283Z,11.93
2018-07-07T06:21:42.954Z,15.47
2018-07-07T06:24:12.495Z,17.00
2018-07-07T06:26:41.844Z,12.47
2018-07-07T06:29:11.341Z,12.27
2018-07-07T06:31:40.728Z,13.10
2018-07-07T06:34:10.174Z,11.80
2018-07-07T06:36:39.558Z,12.87
2018-07-07T06:39:08.874Z,12.90
2018-07-07T06:41:38.303Z,12.23
2018-07-07T06:44:07.845Z,13.17
2018-07-07T06:46:37.315Z,12.80
2018-07-07T06:49:06.343Z,13.00
2018-07-07T06:51:35.630Z,13.67
2018-07-07T06:54:05.175Z,12.57
2018-07-07T06:56:34.138Z,12.03
2018-07-07T06:59:03.421Z,12.20
2018-07-07T07:01:32.811Z,12.03
2018-07-07T07:04:02.543Z,11.83
2018-07-07T07:06:31.979Z,14.63
2018-07-07T07:09:01.364Z,12.40
2018-07-07T07:11:30.918Z,12.53
2018-07-07T07:14:00.475Z,11.60
2018-07-07T07:16:29.767Z,11.00
2018-07-07T07:18:59.140Z,11.10
2018-07-07T07:21:28.595Z,11.90
2018-07-07T07:23:57.702Z,11.00
2018-07-07T07:26:26.994Z,11.40
2018-07-07T07:28:56.317Z,11.60
2018-07-07T07:31:25.627Z,11.70
2018-07-07T07:33:55.167Z,10.93
2018-07-07T07:36:39.626Z,11.33
2018-07-07T07:39:09.023Z,12.53
2018-07-07T07:41:38.481Z,11.97
2018-07-07T07:44:08.107Z,12.63
2018-07-07T07:46:37.468Z,11.50
2018-07-07T07:49:07.470Z,12.17
2018-07-07T07:51:37.029Z,11.33
2018-07-07T07:54:06.687Z,10.83
2018-07-07T07:56:36.239Z,10.47
2018-07-07T07:59:06.930Z,10.73
2018-07-07T08:01:36.437Z,12.20
2018-07-07T08:04:05.768Z,10.30
2018-07-07T08:06:35.158Z,10.67
2018-07-07T08:09:04.753Z,12.07
2018-07-07T08:11:34.094Z,9.80
2018-07-07T08:14:04.120Z,9.73
2018-07-07T08:16:33.694Z,9.00
2018-07-07T08:19:03.060Z,8.23
2018-07-07T08:21:33.932Z,7.90
2018-07-07T08:24:03.427Z,11.07
2018-07-07T08:26:32.786Z,8.50
2018-07-07T08:29:02.138Z,5.00
2018-07-07T08:31:31.545Z,6.83
2018-07-07T08:34:01.775Z,4.63
2018-07-07T08:36:31.161Z,8.60
2018-07-07T08:39:00.500Z,7.73
2018-07-07T08:41:29.984Z,7.87
2018-07-07T08:43:59.938Z,8.13
2018-07-07T08:46:29.332Z,9.63
2018-07-07T08:48:58.662Z,11.43
2018-07-07T08:51:27.881Z,10.57
2018-07-07T08:53:58.142Z,12.07
2018-07-07T08:56:27.638Z,9.33
2018-07-07T08:58:56.973Z,15.60
2018-07-07T09:01:26.495Z,14.07
2018-07-07T09:03:55.961Z,14.50
2018-07-07T09:06:25.337Z,14.67
2018-07-07T09:08:54.902Z,16.73
2018-07-07T09:11:24.248Z,16.10
2018-07-07T09:13:53.750Z,14.17
2018-07-07T09:16:23.151Z,14.23
2018-07-07T09:18:53.087Z,15.83
2018-07-07T09:21:22.998Z,13.90
2018-07-07T09:23:55.106Z,11.30
2018-07-07T09:26:24.710Z,9.97
2018-07-07T09:28:54.050Z,8.73
2018-07-07T09:31:23.316Z,10.67
2018-07-07T09:33:52.631Z,10.57
2018-07-07T09:36:22.237Z,12.20
2018-07-07T09:38:51.686Z,8.93
2018-07-07T09:41:21.175Z,8.10
2018-07-07T09:43:50.503Z,12.30
2018-07-07T09:46:19.723Z,7.07
2018-07-07T09:48:49.100Z,7.87
2018-07-07T09:51:18.413Z,7.43
2018-07-07T09:53:47.706Z,10.77
2018-07-07T09:56:17.195Z,10.63
2018-07-07T09:58:46.502Z,8.33
2018-07-07T10:01:15.874Z,7.40
2018-07-07T10:03:45.220Z,9.23
2018-07-07T10:06:14.479Z,6.67
2018-07-07T10:08:43.730Z,6.97
2018-07-07T10:11:13.029Z,8.87
2018-07-07T10:13:42.392Z,5.63
2018-07-07T10:16:11.723Z,8.33
2018-07-07T10:18:41.289Z,7.93
2018-07-07T10:21:10.604Z,6.43
2018-07-07T10:23:40.008Z,6.67
2018-07-07T10:26:09.326Z,6.67
2018-07-07T10:28:38.690Z,5.37
2018-07-07T10:31:08.719Z,8.27
2018-07-07T10:33:38.024Z,6.97
2018-07-07T10:36:07.424Z,11.70
2018-07-07T10:38:36.747Z,6.63
2018-07-07T10:41:06.229Z,4.93
2018-07-07T10:43:35.622Z,5.40
2018-07-07T10:46:05.216Z,6.37
2018-07-07T10:48:34.470Z,12.20
2018-07-07T10:51:03.841Z,5.27
2018-07-07T10:53:33.255Z,4.93
2018-07-07T10:56:03.445Z,5.63
2018-07-07T10:58:32.942Z,6.20
2018-07-07T11:01:02.481Z,4.10
2018-07-07T11:03:31.720Z,5.00
2018-07-07T11:06:00.996Z,6.73
2018-07-07T11:08:30.234Z,6.23
2018-07-07T11:10:59.522Z,4.30
2018-07-07T11:13:28.777Z,3.73
2018-07-07T11:15:58.245Z,3.93
2018-07-07T11:18:28.259Z,4.77
2018-07-07T11:20:58.080Z,5.60
2018-07-07T11:23:27.054Z,3.43
2018-07-07T11:25:57.359Z,8.33
2018-07-07T11:28:26.985Z,7.37
2018-07-07T11:30:56.609Z,6.10
2018-07-07T11:33:25.879Z,10.20
2018-07-07T11:35:55.105Z,8.47
2018-07-07T11:38:24.387Z,5.13
2018-07-07T11:40:54.234Z,4.47
2018-07-07T11:43:23.570Z,3.63
2018-07-07T11:45:52.883Z,3.03
2018-07-07T11:48:22.195Z,6.03
2018-07-07T11:50:51.595Z,4.13
2018-07-07T11:53:21.370Z,6.67
2018-07-07T11:55:52.973Z,3.87
2018-07-07T11:58:22.675Z,5.60
2018-07-07T12:00:51.958Z,4.43
2018-07-07T12:03:21.258Z,4.13
2018-07-07T12:05:50.499Z,3.50
2018-07-07T12:08:19.786Z,4.23
2018-07-07T12:10:48.966Z,3.70
2018-07-07T12:13:18.241Z,2.67
2018-07-07T12:15:47.518Z,3.67
2018-07-07T12:18:16.776Z,4.47
2018-07-07T12:20:45.995Z,4.10
2018-07-07T12:23:15.235Z,5.30
2018-07-07T12:25:44.481Z,3.77
2018-07-07T12:28:13.836Z,3.00
2018-07-07T12:30:43.140Z,6.37
2018-07-07T12:33:12.550Z,3.93
2018-07-07T12:35:42.396Z,5.73
2018-07-07T12:38:11.697Z,3.10
2018-07-07T12:40:41.795Z,4.27
2018-07-07T12:43:13.559Z,4.77
2018-07-07T12:45:42.820Z,9.87
2018-07-07T12:48:12.067Z,6.00
2018-07-07T12:50:41.360Z,3.53
2018-07-07T12:53:10.700Z,6.17
2018-07-07T12:55:39.993Z,5.27
2018-07-07T12:58:09.298Z,5.60
2018-07-07T13:00:38.569Z,4.63
2018-07-07T13:03:07.758Z,2.77
2018-07-07T13:05:37.073Z,3.90
2018-07-07T13:08:06.387Z,6.67
2018-07-07T13:10:35.618Z,3.50
2018-07-07T13:13:04.957Z,6.07
2018-07-07T13:15:34.182Z,5.27
2018-07-07T13:18:03.484Z,3.97
2018-07-07T13:20:32.743Z,3.53
2018-07-07T13:23:02.016Z,6.90
2018-07-07T13:25:31.306Z,6.13
2018-07-07T13:28:00.655Z,5.87
2018-07-07T13:30:29.912Z,4.30
2018-07-07T13:32:59.241Z,4.83
2018-07-07T13:35:28.470Z,4.40
2018-07-07T13:37:57.812Z,3.13
2018-07-07T13:40:27.114Z,2.93
2018-07-07T13:42:56.384Z,5.13
2018-07-07T13:45:25.643Z,3.00
2018-07-07T13:47:55.069Z,2.77
2018-07-07T13:50:24.301Z,2.87
2018-07-07T13:52:53.669Z,6.00
2018-07-07T13:55:22.855Z,3.30
2018-07-07T13:57:52.074Z,4.67
2018-07-07T14:00:21.314Z,5.33
2018-07-07T14:02:50.548Z,5.20
2018-07-07T14:05:19.982Z,2.70
2018-07-07T14:07:49.354Z,4.50
2018-07-07T14:10:18.693Z,5.23
2018-07-07T14:12:48.119Z,3.60
2018-07-07T14:15:17.350Z,3.30
2018-07-07T14:17:46.612Z,5.37
2018-07-07T14:20:15.948Z,3.10
2018-07-07T14:22:45.246Z,2.40
2018-07-07T14:25:14.546Z,3.77
2018-07-07T14:27:43.929Z,7.87
2018-07-07T14:30:13.227Z,3.47
2018-07-07T14:32:42.580Z,4.53
2018-07-07T14:35:11.954Z,4.20
2018-07-07T14:37:41.181Z,4.40
2018-07-07T14:40:10.459Z,4.60
2018-07-07T14:42:42.001Z,3.50
2018-07-07T14:45:15.594Z,4.03
2018-07-07T14:47:46.119Z,4.70
2018-07-07T14:50:15.818Z,2.50
2018-07-07T14:52:45.537Z,2.43
2018-07-07T14:55:17.019Z,3.63
2018-07-07T14:57:46.583Z,4.37
2018-07-07T15:00:22.842Z,4.90
2018-07-07T15:02:53.279Z,4.73
2018-07-07T15:05:22.642Z,2.63
2018-07-07T15:07:52.367Z,6.10
2018-07-07T15:10:21.719Z,2.73
2018-07-07T15:12:51.744Z,3.23
2018-07-07T15:15:21.434Z,3.97
2018-07-07T15:17:50.711Z,2.60
2018-07-07T15:20:19.998Z,6.70
2018-07-07T15:22:49.848Z,4.60
2018-07-07T15:25:19.109Z,4.33
2018-07-07T15:27:48.376Z,4.73
2018-07-07T15:30:17.752Z,5.93
2018-07-07T15:32:47.070Z,4.30
2018-07-07T15:35:16.464Z,3.90
2018-07-07T15:37:45.713Z,5.40
2018-07-07T15:40:14.991Z,5.00
2018-07-07T15:42:44.194Z,3.23
2018-07-07T15:45:13.566Z,5.03
2018-07-07T15:47:42.824Z,4.27
2018-07-07T15:50:12.130Z,4.77
2018-07-07T15:52:41.402Z,2.70
2018-07-07T15:55:10.891Z,3.13
2018-07-07T15:57:40.188Z,6.87
2018-07-07T16:00:10.469Z,3.13
2018-07-07T16:02:40.736Z,4.27
2018-07-07T16:05:10.063Z,4.70
2018-07-07T16:07:39.291Z,4.63
2018-07-07T16:10:08.651Z,5.37
2018-07-07T16:12:37.902Z,5.20
2018-07-07T16:15:07.191Z,5.30
2018-07-07T16:17:36.536Z,4.97
2018-07-07T16:20:05.885Z,3.87
2018-07-07T16:22:35.183Z,5.20
2018-07-07T16:25:04.594Z,4.07
2018-07-07T16:27:33.872Z,4.80
2018-07-07T16:30:03.184Z,4.63
2018-07-07T16:32:32.522Z,3.80
2018-07-07T16:35:01.893Z,3.67
2018-07-07T16:37:31.204Z,5.67
2018-07-07T16:40:00.540Z,5.53
2018-07-07T16:42:29.852Z,5.07
2018-07-07T16:44:59.859Z,5.00
2018-07-07T16:47:29.147Z,3.27
2018-07-07T16:49:58.529Z,3.27
2018-07-07T16:52:28.515Z,2.83
2018-07-07T16:54:57.835Z,5.67
2018-07-07T16:57:27.140Z,3.90
2018-07-07T16:59:56.456Z,6.50
2018-07-07T17:02:25.747Z,2.50
2018-07-07T17:04:55.164Z,5.40
2018-07-07T17:07:24.585Z,3.17
2018-07-07T17:09:54.336Z,4.87
2018-07-07T17:12:24.015Z,5.00
2018-07-07T17:14:53.361Z,3.27
2018-07-07T17:17:23.695Z,4.77
2018-07-07T17:19:52.965Z,3.20
2018-07-07T17:22:22.546Z,4.17
2018-07-07T17:24:51.871Z,5.27
2018-07-07T17:27:21.231Z,7.03
2018-07-07T17:29:50.615Z,6.73
2018-07-07T17:32:19.981Z,3.77
2018-07-07T17:34:49.322Z,3.00
2018-07-07T17:37:18.678Z,2.73
2018-07-07T17:39:48.110Z,5.20
2018-07-07T17:42:18.006Z,6.90
2018-07-07T17:44:47.362Z,4.43
2018-07-07T17:47:16.647Z,3.10
2018-07-07T17:49:45.962Z,5.27
2018-07-07T17:52:15.426Z,4.77
2018-07-07T17:54:44.744Z,3.80
2018-07-07T17:57:13.982Z,3.83
2018-07-07T17:59:43.327Z,3.90
2018-07-07T18:02:12.676Z,5.13
2018-07-07T18:04:42.025Z,4.67
2018-07-07T18:07:11.231Z,3.90
2018-07-07T18:09:40.531Z,3.83
2018-07-07T18:12:09.577Z,5.30
2018-07-07T18:14:38.750Z,2.50
2018-07-07T18:17:07.612Z,4.07
2018-07-07T18:19:36.796Z,3.57
2018-07-07T18:22:06.252Z,5.57
2018-07-07T18:24:35.601Z,4.83
2018-07-07T18:27:05.162Z,3.93
2018-07-07T18:29:34.443Z,3.00
2018-07-07T18:32:04.729Z,2.50
2018-07-07T18:34:34.094Z,2.73
2018-07-07T18:37:03.411Z,2.13
2018-07-07T18:39:32.716Z,3.63
2018-07-07T18:42:01.986Z,2.67
2018-07-07T18:44:31.280Z,4.13
2018-07-07T18:47:00.624Z,5.30
2018-07-07T18:49:29.874Z,6.10
2018-07-07T18:51:59.187Z,4.53
2018-07-07T18:54:28.536Z,2.43
2018-07-07T18:56:57.791Z,4.80
2018-07-07T18:59:27.051Z,3.97
2018-07-07T19:01:56.379Z,2.20
2018-07-07T19:04:25.559Z,2.40
2018-07-07T19:06:55.001Z,2.87
2018-07-07T19:09:24.287Z,2.17
2018-07-07T19:11:53.575Z,2.20
2018-07-07T19:14:22.902Z,2.33
2018-07-07T19:16:52.287Z,2.17
2018-07-07T19:19:21.615Z,2.10
2018-07-07T19:21:56.189Z,4.07
2018-07-07T19:24:30.914Z,1.83
2018-07-07T19:27:03.817Z,3.87
2018-07-07T19:29:33.219Z,2.37
2018-07-07T19:32:07.866Z,4.40
2018-07-07T19:34:42.650Z,3.83
2018-07-07T19:37:12.551Z,3.60
2018-07-07T19:39:41.971Z,4.30
2018-07-07T19:42:11.318Z,3.17
2018-07-07T19:44:40.532Z,3.93
2018-07-07T19:47:10.128Z,4.77
2018-07-07T19:49:40.179Z,3.20
2018-07-07T19:52:10.072Z,2.27
2018-07-07T19:54:39.292Z,4.00
2018-07-07T19:57:08.596Z,4.10
2018-07-07T19:59:37.964Z,5.23
2018-07-07T20:02:07.544Z,2.60
2018-07-07T20:04:36.832Z,2.03
2018-07-07T20:07:06.054Z,2.30
2018-07-07T20:09:35.289Z,5.97
2018-07-07T20:12:04.751Z,5.50
2018-07-07T20:14:34.097Z,3.87
2018-07-07T20:17:05.491Z,2.67
2018-07-07T20:19:52.350Z,3.20
2018-07-07T20:22:21.765Z,3.33
2018-07-07T20:24:51.145Z,4.97
2018-07-07T20:27:26.166Z,3.17
2018-07-07T20:29:56.080Z,4.20
2018-07-07T20:32:31.977Z,3.73
2018-07-07T20:35:02.032Z,3.63
2018-07-07T20:37:31.538Z,3.63
2018-07-07T20:40:01.419Z,3.73
2018-07-07T20:42:31.666Z,3.50
2018-07-07T20:45:01.021Z,3.47
2018-07-07T20:47:30.397Z,3.77
2018-07-07T20:49:59.807Z,4.90
2018-07-07T20:52:29.344Z,2.53
2018-07-07T20:54:58.899Z,3.00
2018-07-07T20:57:28.917Z,3.10
2018-07-07T20:59:58.271Z,6.63
2018-07-07T21:02:28.119Z,3.90
2018-07-07T21:04:57.599Z,4.27
2018-07-07T21:07:27.352Z,4.70
2018-07-07T21:09:56.702Z,2.13
2018-07-07T21:12:25.973Z,3.27
2018-07-07T21:14:55.326Z,6.63
2018-07-07T21:17:24.736Z,3.83
2018-07-07T21:19:54.650Z,4.43
2018-07-07T21:22:24.142Z,3.43
2018-07-07T21:24:53.833Z,5.93
2018-07-07T21:27:23.203Z,4.40
2018-07-07T21:29:52.575Z,4.40
2018-07-07T21:32:22.072Z,4.57
2018-07-07T21:34:51.576Z,2.73
2018-07-07T21:37:21.164Z,5.27
2018-07-07T21:39:50.549Z,3.17
2018-07-07T21:42:20.094Z,3.80
2018-07-07T21:44:49.713Z,3.97
2018-07-07T21:47:27.283Z,2.87
2018-07-07T21:49:56.825Z,4.13
2018-07-07T21:52:27.381Z,6.10
2018-07-07T21:54:57.146Z,5.00
2018-07-07T21:57:32.013Z,4.23
2018-07-07T22:00:01.654Z,4.00
2018-07-07T22:05:16.902Z,3.33
2018-07-07T22:07:46.312Z,3.23
2018-07-07T22:10:15.796Z,3.80
2018-07-07T22:12:46.447Z,2.57
2018-07-07T22:28:15.814Z,7.27
2018-07-07T22:30:45.610Z,5.07
2018-07-07T22:33:20.246Z,3.90
2018-07-07T22:35:55.200Z,4.13
2018-07-07T22:38:30.837Z,4.97
2018-07-07T22:41:01.660Z,4.17
2018-07-07T22:43:31.331Z,5.80
2018-07-07T22:46:01.396Z,3.03
2018-07-07T22:48:30.859Z,3.07
2018-07-07T22:51:00.438Z,3.80
2018-07-07T22:53:30.025Z,4.13
2018-07-07T22:55:59.370Z,3.23
2018-07-07T22:58:28.732Z,8.67
2018-07-07T23:00:58.148Z,2.80
2018-07-07T23:03:27.740Z,4.37
2018-07-07T23:05:57.111Z,4.43
2018-07-07T23:08:27.264Z,3.77
2018-07-07T23:10:56.615Z,2.37
2018-07-07T23:13:26.037Z,4.50
2018-07-07T23:15:55.602Z,3.37
2018-07-07T23:18:25.376Z,5.77
2018-07-07T23:20:55.059Z,4.30
2018-07-07T23:23:25.697Z,5.60
2018-07-07T23:25:54.747Z,3.13
2018-07-07T23:28:24.487Z,4.50
2018-07-07T23:30:53.779Z,5.37
2018-07-07T23:33:23.019Z,5.83
2018-07-07T23:35:52.509Z,5.03
2018-07-07T23:38:22.744Z,4.57
2018-07-07T23:40:52.340Z,5.27
2018-07-07T23:43:23.087Z,5.03
2018-07-07T23:45:53.346Z,4.87
2018-07-07T23:48:22.663Z,3.13
2018-07-07T23:50:53.130Z,5.53
2018-07-07T23:53:22.586Z,5.03
2018-07-07T23:55:52.347Z,4.30
2018-07-07T23:58:22.159Z,3.37
